sensor_id;sensor_type;location;lat;lon;timestamp;temperature;humidity
21568;DHT22;10944;42.590;12.630;2022-10-23T00:03:43;18.80;99.90
21568;DHT22;10944;42.590;12.630;2022-10-23T00:06:10;18.70;99.90
21568;DHT22;10944;42.590;12.630;2022-10-23T00:08:36;18.60;99.90
21568;DHT22;10944;42.590;12.630;2022-10-23T00:11:10;18.60;99.90
21568;DHT22;10944;42.590;12.630;2022-10-23T00:13:37;18.50;99.90
21568;DHT22;10944;42.590;12.630;2022-10-23T00:16:03;18.40;99.90
21568;DHT22;10944;42.590;12.630;2022-10-23T00:18:29;18.30;99.90
21568;DHT22;10944;42.590;12.630;2022-10-23T00:20:56;18.20;99.90
21568;DHT22;10944;42.590;12.630;2022-10-23T00:23:22;18.30;99.90
21568;DHT22;10944;42.590;12.630;2022-10-23T00:25:47;18.30;99.90
21568;DHT22;10944;42.590;12.630;2022-10-23T00:28:13;18.30;99.90
21568;DHT22;10944;42.590;12.630;2022-10-23T00:30:39;18.20;99.90
21568;DHT22;10944;42.590;12.630;2022-10-23T00:33:05;18.20;99.90
21568;DHT22;10944;42.590;12.630;2022-10-23T00:35:30;18.20;99.90
21568;DHT22;10944;42.590;12.630;2022-10-23T00:37:56;18.20;99.90
21568;DHT22;10944;42.590;12.630;2022-10-23T00:40:22;18.20;99.90
21568;DHT22;10944;42.590;12.630;2022-10-23T00:42:48;18.20;99.90
21568;DHT22;10944;42.590;12.630;2022-10-23T00:45:21;18.20;99.90
21568;DHT22;10944;42.590;12.630;2022-10-23T00:47:47;18.10;99.90
21568;DHT22;10944;42.590;12.630;2022-10-23T00:50:13;18.00;99.90
21568;DHT22;10944;42.590;12.630;2022-10-23T00:52:44;18.00;99.90
21568;DHT22;10944;42.590;12.630;2022-10-23T00:55:11;18.00;99.90
21568;DHT22;10944;42.590;12.630;2022-10-23T00:57:40;18.00;99.90
21568;DHT22;10944;42.590;12.630;2022-10-23T01:00:07;18.00;99.90
21568;DHT22;10944;42.590;12.630;2022-10-23T01:02:33;17.90;99.90
21568;DHT22;10944;42.590;12.630;2022-10-23T01:04:58;17.80;99.90
21568;DHT22;10944;42.590;12.630;2022-10-23T01:12:45;17.80;99.90
21568;DHT22;10944;42.590;12.630;2022-10-23T01:28:48;18.10;99.90
21568;DHT22;10944;42.590;12.630;2022-10-23T01:31:25;18.30;99.90
21568;DHT22;10944;42.590;12.630;2022-10-23T01:33:59;18.20;99.90
21568;DHT22;10944;42.590;12.630;2022-10-23T01:36:30;18.10;99.90
21568;DHT22;10944;42.590;12.630;2022-10-23T01:39:02;18.10;99.90
21568;DHT22;10944;42.590;12.630;2022-10-23T01:41:34;18.00;99.90
21568;DHT22;10944;42.590;12.630;2022-10-23T01:44:35;18.00;99.90
21568;DHT22;10944;42.590;12.630;2022-10-23T01:47:05;18.00;99.90
21568;DHT22;10944;42.590;12.630;2022-10-23T01:49:32;18.00;99.90
21568;DHT22;10944;42.590;12.630;2022-10-23T01:52:00;17.90;99.90
21568;DHT22;10944;42.590;12.630;2022-10-23T01:54:32;17.90;99.90
21568;DHT22;10944;42.590;12.630;2022-10-23T01:56:59;17.90;99.90
21568;DHT22;10944;42.590;12.630;2022-10-23T01:59:33;17.90;99.90
21568;DHT22;10944;42.590;12.630;2022-10-23T02:02:02;17.90;99.90
21568;DHT22;10944;42.590;12.630;2022-10-23T02:04:38;18.00;99.90
21568;DHT22;10944;42.590;12.630;2022-10-23T02:07:04;18.00;99.90
21568;DHT22;10944;42.590;12.630;2022-10-23T02:09:31;17.90;99.90
21568;DHT22;10944;42.590;12.630;2022-10-23T02:12:12;18.00;99.90
21568;DHT22;10944;42.590;12.630;2022-10-23T02:14:53;18.00;99.90
21568;DHT22;10944;42.590;12.630;2022-10-23T02:25:38;18.20;99.90
21568;DHT22;10944;42.590;12.630;2022-10-23T02:28:11;18.20;99.90
21568;DHT22;10944;42.590;12.630;2022-10-23T02:30:42;18.20;99.90
21568;DHT22;10944;42.590;12.630;2022-10-23T02:33:10;18.40;99.90
21568;DHT22;10944;42.590;12.630;2022-10-23T02:35:37;18.30;99.90
21568;DHT22;10944;42.590;12.630;2022-10-23T02:38:02;18.40;99.90
21568;DHT22;10944;42.590;12.630;2022-10-23T02:40:39;18.40;99.90
21568;DHT22;10944;42.590;12.630;2022-10-23T02:43:23;18.30;99.90
21568;DHT22;10944;42.590;12.630;2022-10-23T02:46:00;18.30;99.90
21568;DHT22;10944;42.590;12.630;2022-10-23T02:48:40;18.30;99.90
21568;DHT22;10944;42.590;12.630;2022-10-23T02:51:13;18.30;99.90
21568;DHT22;10944;42.590;12.630;2022-10-23T02:54:03;18.30;99.90
21568;DHT22;10944;42.590;12.630;2022-10-23T02:56:54;18.40;99.90
21568;DHT22;10944;42.590;12.630;2022-10-23T02:59:34;18.40;99.90
21568;DHT22;10944;42.590;12.630;2022-10-23T03:02:07;18.40;99.90
21568;DHT22;10944;42.590;12.630;2022-10-23T03:04:37;18.40;99.90
21568;DHT22;10944;42.590;12.630;2022-10-23T03:07:03;18.40;99.90
21568;DHT22;10944;42.590;12.630;2022-10-23T03:09:30;18.40;99.90
21568;DHT22;10944;42.590;12.630;2022-10-23T03:11:55;18.40;99.90
21568;DHT22;10944;42.590;12.630;2022-10-23T03:14:21;18.40;99.90
21568;DHT22;10944;42.590;12.630;2022-10-23T03:16:47;18.30;99.90
21568;DHT22;10944;42.590;12.630;2022-10-23T03:19:13;18.30;99.90
21568;DHT22;10944;42.590;12.630;2022-10-23T03:21:39;18.30;99.90
21568;DHT22;10944;42.590;12.630;2022-10-23T03:24:05;18.30;99.90
21568;DHT22;10944;42.590;12.630;2022-10-23T03:26:31;18.30;99.90
21568;DHT22;10944;42.590;12.630;2022-10-23T03:28:56;18.40;99.90
21568;DHT22;10944;42.590;12.630;2022-10-23T03:31:22;18.30;99.90
21568;DHT22;10944;42.590;12.630;2022-10-23T03:33:48;18.30;99.90
21568;DHT22;10944;42.590;12.630;2022-10-23T03:36:13;18.20;99.90
21568;DHT22;10944;42.590;12.630;2022-10-23T03:38:39;18.20;99.90
21568;DHT22;10944;42.590;12.630;2022-10-23T03:41:05;18.20;99.90
21568;DHT22;10944;42.590;12.630;2022-10-23T03:43:30;18.30;99.90
21568;DHT22;10944;42.590;12.630;2022-10-23T03:45:56;18.30;99.90
21568;DHT22;10944;42.590;12.630;2022-10-23T03:48:22;18.30;99.90
21568;DHT22;10944;42.590;12.630;2022-10-23T03:50:49;18.30;99.90
21568;DHT22;10944;42.590;12.630;2022-10-23T03:53:15;18.30;99.90
21568;DHT22;10944;42.590;12.630;2022-10-23T03:55:40;18.20;99.90
21568;DHT22;10944;42.590;12.630;2022-10-23T03:58:06;18.20;99.90
21568;DHT22;10944;42.590;12.630;2022-10-23T04:00:32;18.20;99.90
21568;DHT22;10944;42.590;12.630;2022-10-23T04:02:57;18.10;99.90
21568;DHT22;10944;42.590;12.630;2022-10-23T04:05:23;18.10;99.90
21568;DHT22;10944;42.590;12.630;2022-10-23T04:07:49;18.00;99.90
21568;DHT22;10944;42.590;12.630;2022-10-23T04:10:14;18.00;99.90
21568;DHT22;10944;42.590;12.630;2022-10-23T04:12:40;18.10;99.90
21568;DHT22;10944;42.590;12.630;2022-10-23T04:15:06;18.00;99.90
21568;DHT22;10944;42.590;12.630;2022-10-23T04:17:32;18.00;99.90
21568;DHT22;10944;42.590;12.630;2022-10-23T04:19:58;18.00;99.90
21568;DHT22;10944;42.590;12.630;2022-10-23T04:22:23;18.00;99.90
21568;DHT22;10944;42.590;12.630;2022-10-23T04:24:49;17.90;99.90
21568;DHT22;10944;42.590;12.630;2022-10-23T04:27:15;17.80;99.90
21568;DHT22;10944;42.590;12.630;2022-10-23T04:29:40;17.80;99.90
21568;DHT22;10944;42.590;12.630;2022-10-23T04:32:06;17.70;99.90
21568;DHT22;10944;42.590;12.630;2022-10-23T04:34:32;17.80;99.90
21568;DHT22;10944;42.590;12.630;2022-10-23T04:36:58;17.70;99.90
21568;DHT22;10944;42.590;12.630;2022-10-23T04:39:23;17.70;99.90
21568;DHT22;10944;42.590;12.630;2022-10-23T04:41:49;17.70;99.90
21568;DHT22;10944;42.590;12.630;2022-10-23T04:44:15;17.70;99.90
21568;DHT22;10944;42.590;12.630;2022-10-23T04:46:41;17.70;99.90
21568;DHT22;10944;42.590;12.630;2022-10-23T04:49:06;17.70;99.90
21568;DHT22;10944;42.590;12.630;2022-10-23T04:51:32;17.70;99.90
21568;DHT22;10944;42.590;12.630;2022-10-23T04:53:58;17.70;99.90
21568;DHT22;10944;42.590;12.630;2022-10-23T04:56:23;17.70;99.90
21568;DHT22;10944;42.590;12.630;2022-10-23T04:58:49;17.70;99.90
21568;DHT22;10944;42.590;12.630;2022-10-23T05:01:15;17.70;99.90
21568;DHT22;10944;42.590;12.630;2022-10-23T05:03:41;17.70;99.90
21568;DHT22;10944;42.590;12.630;2022-10-23T05:06:07;17.70;99.90
21568;DHT22;10944;42.590;12.630;2022-10-23T05:08:33;17.60;99.90
21568;DHT22;10944;42.590;12.630;2022-10-23T05:11:00;17.70;99.90
21568;DHT22;10944;42.590;12.630;2022-10-23T05:13:26;17.60;99.90
21568;DHT22;10944;42.590;12.630;2022-10-23T05:15:52;17.60;99.90
21568;DHT22;10944;42.590;12.630;2022-10-23T05:18:43;17.50;99.90
21568;DHT22;10944;42.590;12.630;2022-10-23T05:21:18;17.50;99.90
21568;DHT22;10944;42.590;12.630;2022-10-23T05:23:46;17.50;99.90
21568;DHT22;10944;42.590;12.630;2022-10-23T05:26:12;17.40;99.90
21568;DHT22;10944;42.590;12.630;2022-10-23T05:28:37;17.50;99.90
21568;DHT22;10944;42.590;12.630;2022-10-23T05:31:04;17.50;99.90
21568;DHT22;10944;42.590;12.630;2022-10-23T05:33:31;17.40;99.90
21568;DHT22;10944;42.590;12.630;2022-10-23T05:35:57;17.30;99.90
21568;DHT22;10944;42.590;12.630;2022-10-23T05:38:25;17.40;99.90
21568;DHT22;10944;42.590;12.630;2022-10-23T05:40:52;17.40;99.90
21568;DHT22;10944;42.590;12.630;2022-10-23T05:43:18;17.30;99.90
21568;DHT22;10944;42.590;12.630;2022-10-23T05:45:44;17.30;99.90
21568;DHT22;10944;42.590;12.630;2022-10-23T05:48:12;17.30;99.90
21568;DHT22;10944;42.590;12.630;2022-10-23T05:50:38;17.30;99.90
21568;DHT22;10944;42.590;12.630;2022-10-23T05:53:04;17.30;99.90
21568;DHT22;10944;42.590;12.630;2022-10-23T05:55:29;17.40;99.90
21568;DHT22;10944;42.590;12.630;2022-10-23T05:57:55;17.40;99.90
21568;DHT22;10944;42.590;12.630;2022-10-23T06:00:21;17.40;99.90
21568;DHT22;10944;42.590;12.630;2022-10-23T06:02:46;17.40;99.90
21568;DHT22;10944;42.590;12.630;2022-10-23T06:05:12;17.40;99.90
21568;DHT22;10944;42.590;12.630;2022-10-23T06:07:38;17.50;99.90
21568;DHT22;10944;42.590;12.630;2022-10-23T06:10:04;17.60;99.90
21568;DHT22;10944;42.590;12.630;2022-10-23T06:12:30;17.60;99.90
21568;DHT22;10944;42.590;12.630;2022-10-23T06:14:57;17.60;99.90
21568;DHT22;10944;42.590;12.630;2022-10-23T06:17:22;17.70;99.90
21568;DHT22;10944;42.590;12.630;2022-10-23T06:19:48;17.70;99.90
21568;DHT22;10944;42.590;12.630;2022-10-23T06:22:14;17.80;99.90
21568;DHT22;10944;42.590;12.630;2022-10-23T06:24:39;17.90;99.90
21568;DHT22;10944;42.590;12.630;2022-10-23T06:27:05;18.00;99.90
21568;DHT22;10944;42.590;12.630;2022-10-23T06:29:31;18.10;99.90
21568;DHT22;10944;42.590;12.630;2022-10-23T06:31:57;18.20;99.90
21568;DHT22;10944;42.590;12.630;2022-10-23T06:34:22;18.20;99.90
21568;DHT22;10944;42.590;12.630;2022-10-23T06:36:48;18.20;99.90
21568;DHT22;10944;42.590;12.630;2022-10-23T06:39:14;18.20;99.90
21568;DHT22;10944;42.590;12.630;2022-10-23T06:41:39;18.20;99.90
21568;DHT22;10944;42.590;12.630;2022-10-23T06:44:06;18.30;99.90
21568;DHT22;10944;42.590;12.630;2022-10-23T06:46:34;18.30;99.90
21568;DHT22;10944;42.590;12.630;2022-10-23T06:49:00;18.40;99.90
21568;DHT22;10944;42.590;12.630;2022-10-23T06:51:25;18.40;99.90
21568;DHT22;10944;42.590;12.630;2022-10-23T06:53:54;18.50;99.90
21568;DHT22;10944;42.590;12.630;2022-10-23T06:56:20;18.50;99.90
21568;DHT22;10944;42.590;12.630;2022-10-23T06:58:47;18.50;99.90
21568;DHT22;10944;42.590;12.630;2022-10-23T07:01:13;18.60;99.90
21568;DHT22;10944;42.590;12.630;2022-10-23T07:03:40;18.60;99.90
21568;DHT22;10944;42.590;12.630;2022-10-23T07:06:08;18.70;99.90
21568;DHT22;10944;42.590;12.630;2022-10-23T07:08:34;18.70;99.90
21568;DHT22;10944;42.590;12.630;2022-10-23T07:11:05;18.80;99.90
21568;DHT22;10944;42.590;12.630;2022-10-23T07:13:32;18.90;99.90
21568;DHT22;10944;42.590;12.630;2022-10-23T07:15:58;18.90;99.90
21568;DHT22;10944;42.590;12.630;2022-10-23T07:18:24;18.90;99.90
21568;DHT22;10944;42.590;12.630;2022-10-23T07:20:56;18.90;99.90
21568;DHT22;10944;42.590;12.630;2022-10-23T07:23:22;18.90;99.90
21568;DHT22;10944;42.590;12.630;2022-10-23T07:25:48;19.00;99.90
21568;DHT22;10944;42.590;12.630;2022-10-23T07:28:14;19.10;99.90
21568;DHT22;10944;42.590;12.630;2022-10-23T07:30:39;19.20;99.90
21568;DHT22;10944;42.590;12.630;2022-10-23T07:33:05;19.30;99.90
21568;DHT22;10944;42.590;12.630;2022-10-23T07:35:32;19.30;99.90
21568;DHT22;10944;42.590;12.630;2022-10-23T07:38:01;19.30;99.90
21568;DHT22;10944;42.590;12.630;2022-10-23T07:40:26;19.30;99.90
21568;DHT22;10944;42.590;12.630;2022-10-23T07:42:52;19.30;99.90
21568;DHT22;10944;42.590;12.630;2022-10-23T07:45:18;19.40;99.90
21568;DHT22;10944;42.590;12.630;2022-10-23T07:47:49;19.50;99.90
21568;DHT22;10944;42.590;12.630;2022-10-23T07:50:16;19.60;99.90
21568;DHT22;10944;42.590;12.630;2022-10-23T07:52:41;19.60;99.90
21568;DHT22;10944;42.590;12.630;2022-10-23T07:55:07;19.50;99.90
21568;DHT22;10944;42.590;12.630;2022-10-23T07:57:33;19.50;99.90
21568;DHT22;10944;42.590;12.630;2022-10-23T07:59:59;19.40;99.90
21568;DHT22;10944;42.590;12.630;2022-10-23T08:02:25;19.50;99.90
21568;DHT22;10944;42.590;12.630;2022-10-23T08:04:50;19.40;99.90
21568;DHT22;10944;42.590;12.630;2022-10-23T08:07:16;19.40;99.90
21568;DHT22;10944;42.590;12.630;2022-10-23T08:09:42;19.60;99.90
21568;DHT22;10944;42.590;12.630;2022-10-23T08:12:08;19.60;99.90
21568;DHT22;10944;42.590;12.630;2022-10-23T08:14:34;19.70;99.90
21568;DHT22;10944;42.590;12.630;2022-10-23T08:16:59;19.80;99.90
21568;DHT22;10944;42.590;12.630;2022-10-23T08:19:25;19.90;99.90
21568;DHT22;10944;42.590;12.630;2022-10-23T08:21:51;19.90;99.90
21568;DHT22;10944;42.590;12.630;2022-10-23T08:24:19;19.90;99.90
21568;DHT22;10944;42.590;12.630;2022-10-23T08:26:45;19.90;99.90
21568;DHT22;10944;42.590;12.630;2022-10-23T08:29:10;19.90;99.90
21568;DHT22;10944;42.590;12.630;2022-10-23T08:31:36;19.80;99.90
21568;DHT22;10944;42.590;12.630;2022-10-23T08:34:02;19.90;99.90
21568;DHT22;10944;42.590;12.630;2022-10-23T08:36:28;19.90;99.90
21568;DHT22;10944;42.590;12.630;2022-10-23T08:38:55;19.90;99.90
21568;DHT22;10944;42.590;12.630;2022-10-23T08:41:40;20.00;99.90
21568;DHT22;10944;42.590;12.630;2022-10-23T08:44:42;20.10;99.90
21568;DHT22;10944;42.590;12.630;2022-10-23T08:47:21;20.10;99.90
21568;DHT22;10944;42.590;12.630;2022-10-23T08:49:56;20.20;99.90
21568;DHT22;10944;42.590;12.630;2022-10-23T08:52:51;20.30;99.90
21568;DHT22;10944;42.590;12.630;2022-10-23T08:55:26;20.30;99.90
21568;DHT22;10944;42.590;12.630;2022-10-23T08:57:59;20.30;99.90
21568;DHT22;10944;42.590;12.630;2022-10-23T09:00:25;20.30;99.90
21568;DHT22;10944;42.590;12.630;2022-10-23T09:02:52;20.40;99.90
21568;DHT22;10944;42.590;12.630;2022-10-23T09:16:31;20.90;99.90
21568;DHT22;10944;42.590;12.630;2022-10-23T09:19:00;21.10;99.90
21568;DHT22;10944;42.590;12.630;2022-10-23T09:21:29;21.10;99.90
21568;DHT22;10944;42.590;12.630;2022-10-23T09:23:55;21.20;99.90
21568;DHT22;10944;42.590;12.630;2022-10-23T09:26:21;21.30;99.90
21568;DHT22;10944;42.590;12.630;2022-10-23T09:28:54;21.20;99.90
21568;DHT22;10944;42.590;12.630;2022-10-23T09:31:21;21.30;99.90
21568;DHT22;10944;42.590;12.630;2022-10-23T09:34:00;21.30;99.90
21568;DHT22;10944;42.590;12.630;2022-10-23T09:36:27;21.50;99.90
21568;DHT22;10944;42.590;12.630;2022-10-23T09:38:56;21.50;99.90
21568;DHT22;10944;42.590;12.630;2022-10-23T09:41:37;21.50;99.90
21568;DHT22;10944;42.590;12.630;2022-10-23T09:49:31;21.60;99.90
21568;DHT22;10944;42.590;12.630;2022-10-23T09:52:23;21.70;99.90
21568;DHT22;10944;42.590;12.630;2022-10-23T09:54:55;21.60;99.90
21568;DHT22;10944;42.590;12.630;2022-10-23T09:57:39;21.60;99.90
21568;DHT22;10944;42.590;12.630;2022-10-23T10:00:23;21.60;99.90
21568;DHT22;10944;42.590;12.630;2022-10-23T10:02:59;21.50;99.90
21568;DHT22;10944;42.590;12.630;2022-10-23T10:05:27;21.50;99.90
21568;DHT22;10944;42.590;12.630;2022-10-23T10:08:19;21.70;99.90
21568;DHT22;10944;42.590;12.630;2022-10-23T10:10:51;21.70;99.90
21568;DHT22;10944;42.590;12.630;2022-10-23T10:15:52;21.70;99.90
21568;DHT22;10944;42.590;12.630;2022-10-23T10:18:41;21.70;99.90
21568;DHT22;10944;42.590;12.630;2022-10-23T10:24:19;21.70;99.90
21568;DHT22;10944;42.590;12.630;2022-10-23T10:26:48;21.70;99.90
21568;DHT22;10944;42.590;12.630;2022-10-23T10:35:32;21.80;99.90
21568;DHT22;10944;42.590;12.630;2022-10-23T10:40:41;22.10;99.90
21568;DHT22;10944;42.590;12.630;2022-10-23T10:48:41;22.20;99.90
21568;DHT22;10944;42.590;12.630;2022-10-23T10:56:28;22.30;99.90
21568;DHT22;10944;42.590;12.630;2022-10-23T10:58:58;22.30;99.90
21568;DHT22;10944;42.590;12.630;2022-10-23T11:04:45;22.20;99.90
21568;DHT22;10944;42.590;12.630;2022-10-23T11:07:15;22.20;99.90
21568;DHT22;10944;42.590;12.630;2022-10-23T11:09:46;22.20;99.90
21568;DHT22;10944;42.590;12.630;2022-10-23T11:12:26;22.20;99.90
21568;DHT22;10944;42.590;12.630;2022-10-23T11:14:52;22.40;99.90
21568;DHT22;10944;42.590;12.630;2022-10-23T11:17:23;22.40;99.90
21568;DHT22;10944;42.590;12.630;2022-10-23T11:22:45;22.40;99.90
21568;DHT22;10944;42.590;12.630;2022-10-23T11:30:24;22.40;99.90
21568;DHT22;10944;42.590;12.630;2022-10-23T11:38:23;22.40;99.90
21568;DHT22;10944;42.590;12.630;2022-10-23T11:40:56;22.50;99.90
21568;DHT22;10944;42.590;12.630;2022-10-23T11:45:52;22.40;99.90
21568;DHT22;10944;42.590;12.630;2022-10-23T11:48:39;22.40;99.90
21568;DHT22;10944;42.590;12.630;2022-10-23T11:51:23;22.60;99.90
21568;DHT22;10944;42.590;12.630;2022-10-23T11:53:50;22.70;99.90
21568;DHT22;10944;42.590;12.630;2022-10-23T11:58:50;22.70;99.90
21568;DHT22;10944;42.590;12.630;2022-10-23T12:03:48;22.80;99.90
21568;DHT22;10944;42.590;12.630;2022-10-23T12:06:30;22.80;99.90
21568;DHT22;10944;42.590;12.630;2022-10-23T12:09:00;22.80;99.90
21568;DHT22;10944;42.590;12.630;2022-10-23T12:11:42;22.80;99.90
21568;DHT22;10944;42.590;12.630;2022-10-23T12:16:57;22.70;99.90
21568;DHT22;10944;42.590;12.630;2022-10-23T12:19:29;22.60;99.90
21568;DHT22;10944;42.590;12.630;2022-10-23T12:21:59;22.70;99.90
21568;DHT22;10944;42.590;12.630;2022-10-23T12:40:37;22.70;99.90
21568;DHT22;10944;42.590;12.630;2022-10-23T12:43:15;22.60;99.90
21568;DHT22;10944;42.590;12.630;2022-10-23T12:45:44;22.60;99.90
21568;DHT22;10944;42.590;12.630;2022-10-23T12:48:21;22.50;99.90
21568;DHT22;10944;42.590;12.630;2022-10-23T12:50:53;22.40;99.90
21568;DHT22;10944;42.590;12.630;2022-10-23T12:53:20;22.40;99.90
21568;DHT22;10944;42.590;12.630;2022-10-23T12:55:59;22.40;99.90
21568;DHT22;10944;42.590;12.630;2022-10-23T12:58:31;22.30;99.90
21568;DHT22;10944;42.590;12.630;2022-10-23T13:01:02;22.30;99.90
21568;DHT22;10944;42.590;12.630;2022-10-23T13:03:30;22.40;99.90
21568;DHT22;10944;42.590;12.630;2022-10-23T13:05:57;22.60;99.90
21568;DHT22;10944;42.590;12.630;2022-10-23T13:08:28;22.70;99.90
21568;DHT22;10944;42.590;12.630;2022-10-23T13:10:57;22.70;99.90
21568;DHT22;10944;42.590;12.630;2022-10-23T13:13:23;22.80;99.90
21568;DHT22;10944;42.590;12.630;2022-10-23T13:15:50;22.90;99.90
21568;DHT22;10944;42.590;12.630;2022-10-23T13:18:16;23.00;99.90
21568;DHT22;10944;42.590;12.630;2022-10-23T13:23:33;23.00;99.90
21568;DHT22;10944;42.590;12.630;2022-10-23T13:28:43;23.10;99.90
21568;DHT22;10944;42.590;12.630;2022-10-23T13:33:44;23.20;99.90
21568;DHT22;10944;42.590;12.630;2022-10-23T13:38:43;23.10;99.90
21568;DHT22;10944;42.590;12.630;2022-10-23T13:41:19;23.00;99.90
21568;DHT22;10944;42.590;12.630;2022-10-23T13:43:46;23.00;99.90
21568;DHT22;10944;42.590;12.630;2022-10-23T13:46:23;22.90;99.90
21568;DHT22;10944;42.590;12.630;2022-10-23T13:48:52;22.90;99.90
21568;DHT22;10944;42.590;12.630;2022-10-23T13:51:26;22.80;99.90
21568;DHT22;10944;42.590;12.630;2022-10-23T13:53:53;22.80;99.90
21568;DHT22;10944;42.590;12.630;2022-10-23T13:56:21;22.80;99.90
21568;DHT22;10944;42.590;12.630;2022-10-23T13:58:48;22.80;99.90
21568;DHT22;10944;42.590;12.630;2022-10-23T14:01:27;22.80;99.90
21568;DHT22;10944;42.590;12.630;2022-10-23T14:03:54;22.70;99.90
21568;DHT22;10944;42.590;12.630;2022-10-23T14:06:20;22.70;99.90
21568;DHT22;10944;42.590;12.630;2022-10-23T14:08:46;22.70;99.90
21568;DHT22;10944;42.590;12.630;2022-10-23T14:11:13;22.70;99.90
21568;DHT22;10944;42.590;12.630;2022-10-23T14:13:39;22.70;99.90
21568;DHT22;10944;42.590;12.630;2022-10-23T14:16:06;22.70;99.90
21568;DHT22;10944;42.590;12.630;2022-10-23T14:18:33;22.60;99.90
21568;DHT22;10944;42.590;12.630;2022-10-23T14:21:03;22.60;99.90
21568;DHT22;10944;42.590;12.630;2022-10-23T14:23:28;22.60;99.90
21568;DHT22;10944;42.590;12.630;2022-10-23T14:26:03;22.60;99.90
21568;DHT22;10944;42.590;12.630;2022-10-23T14:28:29;22.60;99.90
21568;DHT22;10944;42.590;12.630;2022-10-23T14:30:55;22.60;99.90
21568;DHT22;10944;42.590;12.630;2022-10-23T14:33:21;22.50;99.90
21568;DHT22;10944;42.590;12.630;2022-10-23T14:35:49;22.50;99.90
21568;DHT22;10944;42.590;12.630;2022-10-23T14:38:15;22.50;99.90
21568;DHT22;10944;42.590;12.630;2022-10-23T14:40:40;22.50;99.90
21568;DHT22;10944;42.590;12.630;2022-10-23T14:43:06;22.40;99.90
21568;DHT22;10944;42.590;12.630;2022-10-23T14:45:32;22.50;99.90
21568;DHT22;10944;42.590;12.630;2022-10-23T14:47:58;22.40;99.90
21568;DHT22;10944;42.590;12.630;2022-10-23T14:50:26;22.40;99.90
21568;DHT22;10944;42.590;12.630;2022-10-23T14:52:51;22.30;99.90
21568;DHT22;10944;42.590;12.630;2022-10-23T14:55:17;22.30;99.90
21568;DHT22;10944;42.590;12.630;2022-10-23T14:57:43;22.30;99.90
21568;DHT22;10944;42.590;12.630;2022-10-23T15:00:09;22.30;99.90
21568;DHT22;10944;42.590;12.630;2022-10-23T15:02:36;22.20;99.90
21568;DHT22;10944;42.590;12.630;2022-10-23T15:05:02;22.20;99.90
21568;DHT22;10944;42.590;12.630;2022-10-23T15:07:29;22.20;99.90
21568;DHT22;10944;42.590;12.630;2022-10-23T15:09:54;22.10;99.90
21568;DHT22;10944;42.590;12.630;2022-10-23T15:12:20;22.00;99.90
21568;DHT22;10944;42.590;12.630;2022-10-23T15:14:46;21.90;99.90
21568;DHT22;10944;42.590;12.630;2022-10-23T15:17:11;21.90;99.90
21568;DHT22;10944;42.590;12.630;2022-10-23T15:19:37;21.90;99.90
21568;DHT22;10944;42.590;12.630;2022-10-23T15:22:03;21.80;99.90
21568;DHT22;10944;42.590;12.630;2022-10-23T15:24:29;21.80;99.90
21568;DHT22;10944;42.590;12.630;2022-10-23T15:26:54;21.80;99.90
21568;DHT22;10944;42.590;12.630;2022-10-23T15:29:21;21.70;99.90
21568;DHT22;10944;42.590;12.630;2022-10-23T15:31:56;21.60;99.90
21568;DHT22;10944;42.590;12.630;2022-10-23T15:34:25;21.50;99.90
21568;DHT22;10944;42.590;12.630;2022-10-23T15:36:52;21.40;99.90
21568;DHT22;10944;42.590;12.630;2022-10-23T15:39:23;21.40;99.90
21568;DHT22;10944;42.590;12.630;2022-10-23T15:41:54;21.30;99.90
21568;DHT22;10944;42.590;12.630;2022-10-23T15:44:22;21.20;99.90
21568;DHT22;10944;42.590;12.630;2022-10-23T15:46:49;21.20;99.90
21568;DHT22;10944;42.590;12.630;2022-10-23T15:49:16;21.10;99.90
21568;DHT22;10944;42.590;12.630;2022-10-23T15:51:42;21.00;99.90
21568;DHT22;10944;42.590;12.630;2022-10-23T15:54:10;21.00;99.90
21568;DHT22;10944;42.590;12.630;2022-10-23T15:56:41;20.90;99.90
21568;DHT22;10944;42.590;12.630;2022-10-23T15:59:07;20.80;99.90
21568;DHT22;10944;42.590;12.630;2022-10-23T16:01:32;20.70;99.90
21568;DHT22;10944;42.590;12.630;2022-10-23T16:03:58;20.60;99.90
21568;DHT22;10944;42.590;12.630;2022-10-23T16:06:24;20.60;99.90
21568;DHT22;10944;42.590;12.630;2022-10-23T16:08:49;20.50;99.90
21568;DHT22;10944;42.590;12.630;2022-10-23T16:11:24;20.50;99.90
21568;DHT22;10944;42.590;12.630;2022-10-23T16:13:50;20.40;99.90
21568;DHT22;10944;42.590;12.630;2022-10-23T16:16:17;20.30;99.90
21568;DHT22;10944;42.590;12.630;2022-10-23T16:18:43;20.30;99.90
21568;DHT22;10944;42.590;12.630;2022-10-23T16:23:44;20.20;99.90
21568;DHT22;10944;42.590;12.630;2022-10-23T16:26:10;20.10;99.90
21568;DHT22;10944;42.590;12.630;2022-10-23T16:28:36;20.00;99.90
21568;DHT22;10944;42.590;12.630;2022-10-23T16:31:06;19.90;99.90
21568;DHT22;10944;42.590;12.630;2022-10-23T16:33:32;19.80;99.90
21568;DHT22;10944;42.590;12.630;2022-10-23T16:36:02;19.80;99.90
21568;DHT22;10944;42.590;12.630;2022-10-23T16:38:28;19.70;99.90
21568;DHT22;10944;42.590;12.630;2022-10-23T16:40:54;19.70;99.90
21568;DHT22;10944;42.590;12.630;2022-10-23T16:43:19;19.70;99.90
21568;DHT22;10944;42.590;12.630;2022-10-23T16:45:45;19.70;99.90
21568;DHT22;10944;42.590;12.630;2022-10-23T16:48:11;19.60;99.90
21568;DHT22;10944;42.590;12.630;2022-10-23T16:50:38;19.60;99.90
21568;DHT22;10944;42.590;12.630;2022-10-23T16:53:04;19.60;99.90
21568;DHT22;10944;42.590;12.630;2022-10-23T16:55:30;19.50;99.90
21568;DHT22;10944;42.590;12.630;2022-10-23T16:57:56;19.40;99.90
21568;DHT22;10944;42.590;12.630;2022-10-23T17:00:25;19.30;99.90
21568;DHT22;10944;42.590;12.630;2022-10-23T17:03:03;19.30;99.90
21568;DHT22;10944;42.590;12.630;2022-10-23T17:05:32;19.40;99.90
21568;DHT22;10944;42.590;12.630;2022-10-23T17:07:59;19.30;99.90
21568;DHT22;10944;42.590;12.630;2022-10-23T17:10:24;19.30;99.90
21568;DHT22;10944;42.590;12.630;2022-10-23T17:12:50;19.40;99.90
21568;DHT22;10944;42.590;12.630;2022-10-23T17:15:17;19.50;99.90
21568;DHT22;10944;42.590;12.630;2022-10-23T17:17:44;19.60;99.90
21568;DHT22;10944;42.590;12.630;2022-10-23T17:20:10;19.80;99.90
21568;DHT22;10944;42.590;12.630;2022-10-23T17:22:36;19.70;99.90
21568;DHT22;10944;42.590;12.630;2022-10-23T17:25:04;19.60;99.90
21568;DHT22;10944;42.590;12.630;2022-10-23T17:27:30;19.50;99.90
21568;DHT22;10944;42.590;12.630;2022-10-23T17:29:55;19.50;99.90
21568;DHT22;10944;42.590;12.630;2022-10-23T17:32:22;19.60;99.90